Time;durP1;ratioP1;P1;durP2;ratioP2;P2;SDS_P1;SDS_P2;PMS_P1;PMS_P2;Temp;Humidity;BMP_temperature;BMP_pressure;BME280_temperature;BME280_humidity;BME280_pressure;Samples;Min_cycle;Max_cycle;Signal;HPM_P1;HPM_P2
2024/01/02 00:00:38;;;;;;;4.30;1.40;;;2.40;99.90;;;;;;4989657;28;20050;-81
2024/01/02 00:03:04;;;;;;;6.70;1.87;;;2.40;99.90;;;;;;4989619;28;20139;-80
2024/01/02 00:05:30;;;;;;;4.07;1.40;;;2.40;99.90;;;;;;4990434;28;20079;-81
2024/01/02 00:07:55;;;;;;;4.10;1.27;;;2.40;99.90;;;;;;4989369;28;20148;-81
2024/01/02 00:10:22;;;;;;;3.27;1.50;;;2.40;99.90;;;;;;4989872;28;20037;-80
2024/01/02 00:12:47;;;;;;;5.50;1.73;;;2.40;99.90;;;;;;4991139;28;20030;-80
2024/01/02 00:15:13;;;;;;;5.60;1.83;;;2.30;99.90;;;;;;4992905;28;20053;-80
2024/01/02 00:17:38;;;;;;;4.27;1.60;;;2.30;99.90;;;;;;4992015;28;20508;-78
2024/01/02 00:20:05;;;;;;;3.50;1.23;;;2.30;99.90;;;;;;4992581;28;20272;-80
2024/01/02 00:22:30;;;;;;;3.20;1.43;;;2.30;99.90;;;;;;4990983;28;20061;-79
2024/01/02 00:24:56;;;;;;;4.37;1.40;;;2.30;99.90;;;;;;4971975;28;21084;-80
2024/01/02 00:27:21;;;;;;;3.27;1.50;;;2.30;99.90;;;;;;4988932;28;20061;-80
2024/01/02 00:29:47;;;;;;;3.97;1.33;;;2.40;99.90;;;;;;4990270;28;20033;-80
2024/01/02 00:32:12;;;;;;;4.03;1.63;;;2.40;99.90;;;;;;4990689;28;20026;-79
2024/01/02 00:34:38;;;;;;;4.53;1.80;;;2.30;99.90;;;;;;4989864;28;20120;-80
2024/01/02 00:37:04;;;;;;;6.27;1.40;;;2.40;99.90;;;;;;4990299;28;20080;-80
2024/01/02 00:39:29;;;;;;;3.63;1.40;;;2.40;99.90;;;;;;4973010;28;20030;-78
2024/01/02 00:41:55;;;;;;;4.73;1.40;;;2.40;99.90;;;;;;4991637;28;20129;-79
2024/01/02 00:44:20;;;;;;;4.40;1.40;;;2.40;99.90;;;;;;4972098;28;20042;-79
2024/01/02 00:46:45;;;;;;;2.63;1.20;;;2.40;99.90;;;;;;4990109;28;20110;-80
2024/01/02 00:49:11;;;;;;;4.53;1.30;;;2.50;99.90;;;;;;4990130;28;20764;-79
2024/01/02 00:51:37;;;;;;;3.13;1.30;;;2.50;99.90;;;;;;4972269;28;20019;-79
2024/01/02 00:54:02;;;;;;;2.00;1.10;;;2.50;99.90;;;;;;4989488;28;20034;-79
2024/01/02 00:56:28;;;;;;;1.93;1.30;;;2.50;99.90;;;;;;4990858;28;20027;-80
2024/01/02 00:58:54;;;;;;;6.73;1.60;;;2.50;99.90;;;;;;4993057;28;20049;-79
2024/01/02 01:01:20;;;;;;;3.57;1.20;;;2.50;99.90;;;;;;4993403;28;20061;-80
2024/01/02 01:03:45;;;;;;;3.50;1.50;;;2.60;99.90;;;;;;4994615;28;20052;-79
2024/01/02 01:06:11;;;;;;;3.73;1.37;;;2.60;99.90;;;;;;4992668;28;20041;-79
2024/01/02 01:08:37;;;;;;;2.87;1.23;;;2.60;99.90;;;;;;4994629;28;20037;-80
2024/01/02 01:11:03;;;;;;;2.57;1.50;;;2.70;99.90;;;;;;4993118;28;20113;-81
2024/01/02 01:13:28;;;;;;;5.03;1.90;;;2.70;99.90;;;;;;4992728;28;20109;-80
2024/01/02 01:15:54;;;;;;;4.17;1.50;;;2.80;99.90;;;;;;4991576;28;20144;-80
2024/01/02 01:18:19;;;;;;;4.47;1.40;;;2.80;99.90;;;;;;4993247;28;20053;-79
2024/01/02 01:20:45;;;;;;;2.80;1.30;;;2.80;99.90;;;;;;4993718;28;20049;-79
2024/01/02 01:23:10;;;;;;;4.33;1.90;;;2.80;99.90;;;;;;4993562;28;20037;-80
2024/01/02 01:25:36;;;;;;;7.90;2.97;;;2.90;99.90;;;;;;4993293;28;20040;-79
2024/01/02 01:28:03;;;;;;;3.43;1.40;;;2.90;99.90;;;;;;4992607;28;20128;-80
2024/01/02 01:30:29;;;;;;;3.23;1.37;;;2.90;99.90;;;;;;4992053;28;20153;-80
2024/01/02 01:32:54;;;;;;;3.37;1.27;;;2.90;99.90;;;;;;4992437;28;20094;-79
2024/01/02 01:35:20;;;;;;;1.93;1.17;;;3.00;99.90;;;;;;4992447;28;20030;-80
2024/01/02 01:37:45;;;;;;;3.67;1.40;;;2.90;99.90;;;;;;4994184;28;20133;-79
2024/01/02 01:40:11;;;;;;;5.43;1.40;;;3.00;99.90;;;;;;4992750;28;20034;-80
2024/01/02 01:42:37;;;;;;;3.03;1.73;;;3.00;99.90;;;;;;4993895;28;20056;-80
2024/01/02 01:45:02;;;;;;;3.10;1.33;;;3.00;99.90;;;;;;4993201;28;20026;-80
2024/01/02 01:47:28;;;;;;;4.67;1.40;;;3.00;99.90;;;;;;4993348;28;20777;-79
2024/01/02 01:49:54;;;;;;;2.97;1.50;;;3.00;99.90;;;;;;4992266;28;21042;-79
2024/01/02 01:52:20;;;;;;;4.30;1.73;;;3.00;99.90;;;;;;4993113;28;20021;-79
2024/01/02 01:54:45;;;;;;;3.13;1.60;;;3.10;99.90;;;;;;4991878;28;21366;-80
2024/01/02 01:57:13;;;;;;;3.03;1.30;;;3.10;99.90;;;;;;4992449;28;20032;-80
2024/01/02 01:59:39;;;;;;;3.37;1.67;;;3.10;99.90;;;;;;4992558;28;20068;-80
2024/01/02 02:02:05;;;;;;;2.53;1.23;;;3.10;99.90;;;;;;4992432;28;20124;-80
2024/01/02 02:04:32;;;;;;;2.50;1.50;;;3.10;99.90;;;;;;4997092;28;20061;-80
2024/01/02 02:06:57;;;;;;;2.33;1.40;;;3.10;99.90;;;;;;4995119;28;20030;-79
2024/01/02 02:09:23;;;;;;;4.73;1.30;;;3.10;99.90;;;;;;4996358;28;20029;-79
2024/01/02 02:11:49;;;;;;;4.37;1.53;;;3.10;99.90;;;;;;4994230;28;20023;-79
2024/01/02 02:14:15;;;;;;;3.83;1.40;;;3.20;99.90;;;;;;4995657;28;20046;-79
2024/01/02 02:16:42;;;;;;;4.33;1.40;;;3.20;99.90;;;;;;4992672;28;20034;-79
2024/01/02 02:19:08;;;;;;;3.13;1.80;;;3.20;99.90;;;;;;4991883;28;20041;-80
2024/01/02 02:21:35;;;;;;;3.17;1.47;;;3.20;99.90;;;;;;4991771;28;20038;-79
2024/01/02 02:24:01;;;;;;;3.47;1.60;;;3.30;99.90;;;;;;4991275;28;20034;-80
2024/01/02 02:26:26;;;;;;;3.50;1.50;;;3.30;99.90;;;;;;4990340;28;20080;-80
2024/01/02 02:28:52;;;;;;;3.80;1.73;;;3.30;99.90;;;;;;4991755;28;20509;-79
2024/01/02 02:31:18;;;;;;;3.93;1.60;;;3.30;99.90;;;;;;4974015;28;20034;-80
2024/01/02 02:33:44;;;;;;;2.13;1.27;;;3.30;99.90;;;;;;4990510;28;20038;-80
2024/01/02 02:36:09;;;;;;;2.83;1.30;;;3.30;99.90;;;;;;4990752;28;20025;-80
2024/01/02 02:38:35;;;;;;;3.67;1.33;;;3.30;99.90;;;;;;4991137;28;20088;-80
2024/01/02 02:41:00;;;;;;;5.17;1.70;;;3.30;99.90;;;;;;4991961;28;20030;-80
2024/01/02 02:43:26;;;;;;;3.07;1.60;;;3.30;99.90;;;;;;4990144;28;20034;-79
2024/01/02 02:45:51;;;;;;;2.33;1.10;;;3.30;99.90;;;;;;4991740;28;20070;-80
2024/01/02 02:48:17;;;;;;;3.90;1.63;;;3.30;99.90;;;;;;4991447;28;20026;-80
2024/01/02 02:50:42;;;;;;;1.97;1.30;;;3.30;99.90;;;;;;4992147;28;20030;-80
2024/01/02 02:53:08;;;;;;;3.83;1.40;;;3.30;99.90;;;;;;4990593;28;20758;-79
2024/01/02 02:55:33;;;;;;;3.93;1.40;;;3.30;99.90;;;;;;4988961;28;20081;-80
2024/01/02 02:57:59;;;;;;;3.23;1.40;;;3.30;99.90;;;;;;4989659;28;20503;-80
2024/01/02 03:00:24;;;;;;;2.37;1.40;;;3.30;99.90;;;;;;4990255;28;20128;-81
2024/01/02 03:02:50;;;;;;;2.73;1.47;;;3.30;99.90;;;;;;4990461;28;20426;-79
2024/01/02 03:05:16;;;;;;;2.63;1.27;;;3.30;99.90;;;;;;4990777;28;20166;-80
2024/01/02 03:07:42;;;;;;;2.27;1.37;;;3.30;99.90;;;;;;4991326;28;20058;-80
2024/01/02 03:10:10;;;;;;;2.63;1.20;;;3.30;99.90;;;;;;4991426;28;20065;-80
2024/01/02 03:12:35;;;;;;;2.90;1.50;;;3.30;99.90;;;;;;4991465;28;20421;-80
2024/01/02 03:15:01;;;;;;;3.23;1.37;;;3.20;99.90;;;;;;4991746;28;20057;-80
2024/01/02 03:17:27;;;;;;;3.70;1.33;;;3.30;99.90;;;;;;4991500;28;20373;-80
2024/01/02 03:19:53;;;;;;;3.50;1.60;;;3.30;99.90;;;;;;4988824;28;20026;-80
2024/01/02 03:22:18;;;;;;;3.50;1.70;;;3.30;99.90;;;;;;4990987;28;20026;-80
2024/01/02 03:24:44;;;;;;;3.50;1.67;;;3.30;99.90;;;;;;4990695;28;20038;-79
2024/01/02 03:27:09;;;;;;;3.70;1.57;;;3.30;99.90;;;;;;4991125;28;20032;-79
2024/01/02 03:29:35;;;;;;;4.23;2.07;;;3.30;99.90;;;;;;4989412;28;20034;-80
2024/01/02 03:32:00;;;;;;;2.60;1.27;;;3.30;99.90;;;;;;4990835;28;20038;-81
2024/01/02 03:34:26;;;;;;;2.87;1.20;;;3.30;99.90;;;;;;4991247;28;20045;-80
2024/01/02 03:36:51;;;;;;;3.40;1.60;;;3.30;99.90;;;;;;4991260;28;20038;-80
2024/01/02 03:39:17;;;;;;;3.07;1.20;;;3.40;99.90;;;;;;4989425;28;20025;-80
2024/01/02 03:41:42;;;;;;;4.40;1.30;;;3.40;99.90;;;;;;4990680;28;20504;-79
2024/01/02 03:44:08;;;;;;;2.87;1.40;;;3.40;99.90;;;;;;4972101;28;20042;-80
2024/01/02 03:46:34;;;;;;;6.30;1.27;;;3.50;99.90;;;;;;4989486;28;20030;-80
2024/01/02 03:48:59;;;;;;;3.17;1.37;;;3.50;99.90;;;;;;4991259;28;20030;-80
2024/01/02 03:51:25;;;;;;;2.60;1.30;;;3.50;99.90;;;;;;4990596;28;20045;-80
2024/01/02 03:53:50;;;;;;;3.80;1.30;;;3.50;99.90;;;;;;4990300;28;20030;-80
2024/01/02 03:56:16;;;;;;;2.97;1.60;;;3.50;99.90;;;;;;4988705;28;20034;-80
2024/01/02 03:58:42;;;;;;;3.47;1.47;;;3.50;99.90;;;;;;4990116;28;20113;-80
2024/01/02 04:01:08;;;;;;;2.30;1.10;;;3.50;99.90;;;;;;4990419;28;20033;-80
2024/01/02 04:03:34;;;;;;;3.17;1.50;;;3.50;99.90;;;;;;4988470;28;20022;-80
2024/01/02 04:06:00;;;;;;;3.03;1.20;;;3.50;99.90;;;;;;4989156;28;20061;-79
2024/01/02 04:08:25;;;;;;;1.97;1.33;;;3.50;99.90;;;;;;4990361;28;20026;-79
2024/01/02 04:10:51;;;;;;;3.87;1.20;;;3.60;99.90;;;;;;4993119;28;20026;-79
2024/01/02 04:13:16;;;;;;;3.33;1.30;;;3.60;99.90;;;;;;4993315;28;20542;-80
2024/01/02 04:15:42;;;;;;;2.97;1.50;;;3.60;99.90;;;;;;4992826;28;20038;-81
2024/01/02 04:18:08;;;;;;;3.77;1.20;;;3.60;99.90;;;;;;4990175;28;20030;-80
2024/01/02 04:20:33;;;;;;;3.23;1.13;;;3.60;99.90;;;;;;4990006;28;20542;-79
2024/01/02 04:22:59;;;;;;;5.77;1.60;;;3.70;99.90;;;;;;4989487;28;20036;-80
2024/01/02 04:25:24;;;;;;;2.67;1.17;;;3.60;99.90;;;;;;4992830;28;20073;-78
2024/01/02 04:27:53;;;;;;;2.60;1.07;;;3.70;99.90;;;;;;4977967;28;20030;-79
2024/01/02 04:30:18;;;;;;;2.30;1.20;;;3.80;99.90;;;;;;4995203;28;20441;-80
2024/01/02 04:32:44;;;;;;;2.83;1.30;;;3.80;99.90;;;;;;4977294;28;20077;-80
2024/01/02 04:35:09;;;;;;;2.07;1.20;;;3.80;99.90;;;;;;4999577;28;20189;-80
2024/01/02 04:37:35;;;;;;;6.87;1.30;;;3.80;99.90;;;;;;4993830;28;20038;-80
2024/01/02 04:40:01;;;;;;;3.77;1.17;;;3.90;99.90;;;;;;4993695;28;20197;-80
2024/01/02 04:42:26;;;;;;;1.77;1.10;;;3.90;99.90;;;;;;4993811;28;20120;-81
2024/01/02 04:44:52;;;;;;;3.50;1.00;;;3.90;99.90;;;;;;4991759;28;21093;-80
2024/01/02 04:47:17;;;;;;;4.43;1.20;;;3.90;99.90;;;;;;4992346;28;20054;-81
2024/01/02 04:49:43;;;;;;;2.20;1.27;;;3.90;99.90;;;;;;4992242;28;20073;-81
2024/01/02 04:52:08;;;;;;;2.23;1.40;;;4.00;99.90;;;;;;4992535;28;20410;-80
2024/01/02 04:54:34;;;;;;;2.73;1.40;;;3.90;99.90;;;;;;4993228;28;20044;-80
2024/01/02 04:57:00;;;;;;;2.37;1.10;;;4.00;99.90;;;;;;4992589;28;20040;-80
2024/01/02 04:59:25;;;;;;;5.00;1.43;;;4.00;99.90;;;;;;4992624;28;20068;-80
2024/01/02 05:01:51;;;;;;;2.97;1.50;;;4.00;99.90;;;;;;4993770;28;20041;-80
2024/01/02 05:04:16;;;;;;;2.97;1.30;;;4.00;99.90;;;;;;4991728;28;20077;-80
2024/01/02 05:06:42;;;;;;;2.83;1.30;;;4.00;99.90;;;;;;4991159;28;20129;-80
2024/01/02 05:09:08;;;;;;;2.70;1.17;;;4.00;99.90;;;;;;4989962;28;20027;-81
2024/01/02 05:11:38;;;;;;;3.87;1.20;;;4.00;99.90;;;;;;4993933;28;20925;-80
2024/01/02 05:14:04;;;;;;;4.83;1.30;;;4.00;99.90;;;;;;4996045;28;21488;-80
2024/01/02 05:16:30;;;;;;;3.90;2.00;;;4.00;99.90;;;;;;4994451;28;20073;-81
2024/01/02 05:18:55;;;;;;;4.13;1.40;;;4.00;99.90;;;;;;4994786;28;20062;-80
2024/01/02 05:21:21;;;;;;;1.73;1.20;;;4.00;99.90;;;;;;4995435;28;20030;-71
2024/01/02 05:23:46;;;;;;;3.43;1.30;;;4.00;99.90;;;;;;4991391;28;20026;-79
2024/01/02 05:26:12;;;;;;;1.93;1.30;;;3.90;99.90;;;;;;4981384;28;20046;-78
2024/01/02 05:28:37;;;;;;;4.87;1.27;;;3.90;99.90;;;;;;4998402;28;20090;-80
2024/01/02 05:31:03;;;;;;;3.87;1.23;;;3.90;99.90;;;;;;5000105;28;20083;-79
2024/01/02 05:33:30;;;;;;;3.67;1.10;;;3.90;99.90;;;;;;5001881;28;20027;-78
2024/01/02 05:35:55;;;;;;;2.67;1.53;;;3.90;99.90;;;;;;5000705;28;20026;-79
2024/01/02 05:38:21;;;;;;;2.30;1.00;;;3.90;99.90;;;;;;4998907;28;20092;-79
2024/01/02 05:40:46;;;;;;;1.50;1.00;;;3.90;99.90;;;;;;5001285;28;20053;-79
2024/01/02 05:43:12;;;;;;;1.00;0.90;;;3.90;99.90;;;;;;5001150;28;20066;-78
2024/01/02 05:45:37;;;;;;;1.60;1.00;;;3.90;99.90;;;;;;5000179;28;20951;-78
2024/01/02 05:48:04;;;;;;;1.70;0.93;;;3.90;99.90;;;;;;5000138;28;20057;-79
2024/01/02 05:50:29;;;;;;;2.40;1.17;;;3.90;99.90;;;;;;4990943;28;20030;-80
2024/01/02 05:52:55;;;;;;;2.57;1.10;;;4.00;99.90;;;;;;4996125;28;20030;-80
2024/01/02 05:55:20;;;;;;;2.00;1.17;;;4.00;99.90;;;;;;4998034;28;20026;-79
2024/01/02 05:57:46;;;;;;;3.53;1.20;;;4.00;99.90;;;;;;4998947;28;20031;-79
2024/01/02 06:00:12;;;;;;;3.70;1.10;;;4.00;99.90;;;;;;4980395;28;20034;-79
2024/01/02 06:02:38;;;;;;;3.87;1.20;;;4.10;99.90;;;;;;5000112;28;20106;-78
2024/01/02 06:05:04;;;;;;;1.57;1.10;;;4.10;99.90;;;;;;5001181;28;20062;-80
2024/01/02 06:07:29;;;;;;;3.17;0.90;;;4.20;99.90;;;;;;4997623;28;20152;-80
2024/01/02 06:09:55;;;;;;;2.00;1.17;;;4.20;99.90;;;;;;4978803;28;20038;-79
2024/01/02 06:12:21;;;;;;;1.67;1.00;;;4.30;99.90;;;;;;4995524;28;20430;-80
2024/01/02 06:14:46;;;;;;;2.43;1.00;;;4.30;99.90;;;;;;4977295;28;20126;-80
2024/01/02 06:17:12;;;;;;;1.50;0.80;;;4.30;99.90;;;;;;4993691;28;20108;-80
2024/01/02 06:19:37;;;;;;;1.97;0.83;;;4.40;99.90;;;;;;4997852;28;20042;-80
2024/01/02 06:22:03;;;;;;;2.07;1.00;;;4.40;99.90;;;;;;4995901;28;20097;-80
2024/01/02 06:24:29;;;;;;;1.43;0.80;;;4.50;99.90;;;;;;4995953;28;20681;-80
2024/01/02 06:26:54;;;;;;;1.03;0.80;;;4.60;99.90;;;;;;4996313;28;20118;-79
2024/01/02 06:29:21;;;;;;;0.60;0.60;;;4.90;99.90;;;;;;4995575;28;20123;-74
2024/01/02 06:31:46;;;;;;;0.63;0.63;;;5.20;99.90;;;;;;4994979;28;20033;-80
2024/01/02 06:34:12;;;;;;;0.67;0.60;;;5.30;99.90;;;;;;4997208;28;20030;-79
2024/01/02 06:36:38;;;;;;;0.70;0.70;;;5.50;99.90;;;;;;4993732;28;20126;-77
2024/01/02 06:39:04;;;;;;;0.63;0.60;;;5.70;99.90;;;;;;4995640;28;20086;-78
2024/01/02 06:41:29;;;;;;;0.80;0.70;;;5.80;99.90;;;;;;4995850;28;20562;-79
2024/01/02 06:43:55;;;;;;;1.33;0.70;;;5.80;99.90;;;;;;4999499;28;20436;-78
2024/01/02 06:46:20;;;;;;;1.00;0.57;;;5.90;99.90;;;;;;4999390;28;20056;-79
2024/01/02 06:48:46;;;;;;;0.60;0.60;;;5.90;99.90;;;;;;5000119;28;20093;-79
2024/01/02 06:51:11;;;;;;;0.70;0.70;;;5.80;99.90;;;;;;4999208;28;20497;-77
2024/01/02 06:53:37;;;;;;;0.93;0.70;;;5.70;99.90;;;;;;4998658;28;20033;-78
2024/01/02 06:56:03;;;;;;;0.70;0.70;;;5.70;99.90;;;;;;4999101;28;20040;-77
2024/01/02 06:58:28;;;;;;;1.27;0.90;;;5.60;99.90;;;;;;4999693;28;20035;-79
2024/01/02 07:00:54;;;;;;;0.70;0.70;;;5.50;99.90;;;;;;4995351;28;20449;-77
2024/01/02 07:03:21;;;;;;;2.23;0.77;;;5.50;99.90;;;;;;4998715;28;20023;-78
2024/01/02 07:05:47;;;;;;;0.83;0.70;;;5.40;99.90;;;;;;4998166;28;20040;-81
2024/01/02 07:08:12;;;;;;;2.00;1.13;;;5.30;99.90;;;;;;4992892;28;20034;-82
2024/01/02 07:10:38;;;;;;;1.07;0.90;;;5.30;99.90;;;;;;4999155;28;20053;-80
2024/01/02 07:13:03;;;;;;;1.63;0.90;;;5.30;99.90;;;;;;4980246;28;20710;-80
2024/01/02 07:15:29;;;;;;;0.97;0.80;;;5.20;99.90;;;;;;4995990;28;20034;-82
2024/01/02 07:17:55;;;;;;;1.77;1.00;;;5.10;99.90;;;;;;4994190;28;20045;-78
2024/01/02 07:20:20;;;;;;;1.57;1.07;;;5.00;99.90;;;;;;5000125;28;20038;-80
2024/01/02 07:22:47;;;;;;;1.20;1.00;;;4.90;99.90;;;;;;4983317;28;20041;-78
2024/01/02 07:25:14;;;;;;;1.70;1.00;;;4.90;99.90;;;;;;4998329;28;20567;-80
2024/01/02 07:27:39;;;;;;;2.10;1.10;;;4.80;99.90;;;;;;4982229;28;20080;-80
2024/01/02 07:30:05;;;;;;;1.73;1.20;;;4.70;99.90;;;;;;4999509;28;20045;-79
2024/01/02 07:32:31;;;;;;;0.87;0.80;;;4.70;99.90;;;;;;4999967;28;20434;-79
2024/01/02 07:34:56;;;;;;;2.17;1.00;;;4.60;99.90;;;;;;5000576;28;20030;-79
2024/01/02 07:37:22;;;;;;;1.80;1.10;;;4.60;99.90;;;;;;4999318;28;20049;-79
2024/01/02 07:39:50;;;;;;;1.60;1.10;;;4.50;99.90;;;;;;4999281;28;20035;-79
2024/01/02 07:42:16;;;;;;;1.70;0.87;;;4.50;99.90;;;;;;5001469;28;20037;-79
2024/01/02 07:44:41;;;;;;;1.80;1.17;;;4.40;99.90;;;;;;5000991;28;20358;-79
2024/01/02 07:47:07;;;;;;;4.33;1.10;;;4.40;99.90;;;;;;4999823;28;20080;-80
2024/01/02 07:49:32;;;;;;;1.70;1.00;;;4.40;99.90;;;;;;5000295;28;20041;-79
2024/01/02 07:51:58;;;;;;;3.37;1.00;;;4.40;99.90;;;;;;4997092;28;20058;-78
2024/01/02 07:54:23;;;;;;;1.70;1.00;;;4.30;99.90;;;;;;4981378;28;20030;-79
2024/01/02 07:56:49;;;;;;;1.93;1.17;;;4.30;99.90;;;;;;4998461;28;20622;-79
2024/01/02 07:59:19;;;;;;;1.77;1.10;;;4.30;99.90;;;;;;4999091;28;20053;-79
2024/01/02 08:01:45;;;;;;;1.87;1.17;;;4.30;99.90;;;;;;4991707;28;20072;-78
2024/01/02 08:04:11;;;;;;;4.23;0.90;;;4.30;99.90;;;;;;4994554;28;20022;-77
2024/01/02 08:06:36;;;;;;;1.20;0.90;;;4.30;99.90;;;;;;4982080;28;20044;-79
2024/01/02 08:09:02;;;;;;;1.43;1.03;;;4.40;99.90;;;;;;5001303;28;20038;-79
2024/01/02 08:11:27;;;;;;;1.63;1.23;;;4.40;99.90;;;;;;4997985;28;20030;-79
2024/01/02 08:13:53;;;;;;;1.50;1.00;;;4.40;99.90;;;;;;4993368;28;20526;-78
2024/01/02 08:16:20;;;;;;;2.10;1.10;;;4.40;99.90;;;;;;4993105;28;20044;-79
2024/01/02 08:18:45;;;;;;;2.50;1.03;;;4.40;99.90;;;;;;4994317;28;20042;-80
2024/01/02 08:21:11;;;;;;;1.43;1.00;;;4.40;99.90;;;;;;4993958;28;20113;-78
2024/01/02 08:23:38;;;;;;;2.97;1.10;;;4.40;99.90;;;;;;4997356;28;20031;-79
2024/01/02 08:26:05;;;;;;;2.37;1.33;;;4.50;99.90;;;;;;4976914;28;20030;-79
2024/01/02 08:28:31;;;;;;;1.33;1.00;;;4.50;99.90;;;;;;4995599;28;20032;-79
2024/01/02 08:30:56;;;;;;;2.23;1.10;;;4.50;99.90;;;;;;4995033;28;20026;-78
2024/01/02 08:33:22;;;;;;;2.03;0.97;;;4.50;99.90;;;;;;4994831;28;20040;-79
2024/01/02 08:35:47;;;;;;;2.77;1.10;;;4.50;99.90;;;;;;4991525;28;20038;-80
2024/01/02 08:38:13;;;;;;;1.00;0.80;;;4.50;99.90;;;;;;4992948;28;20085;-79
2024/01/02 08:40:38;;;;;;;2.00;1.00;;;4.50;99.90;;;;;;4996697;28;20033;-80
2024/01/02 08:43:04;;;;;;;1.17;0.90;;;4.50;99.90;;;;;;4997393;28;20026;-79
2024/01/02 08:45:29;;;;;;;1.57;1.00;;;4.50;99.90;;;;;;4995401;28;20658;-81
2024/01/02 08:47:55;;;;;;;4.27;1.10;;;4.50;99.90;;;;;;4994148;28;20018;-79
2024/01/02 08:50:21;;;;;;;2.00;1.20;;;4.50;99.90;;;;;;4994443;28;20073;-79
2024/01/02 08:52:47;;;;;;;2.73;1.20;;;4.50;99.90;;;;;;4996220;28;20030;-80
2024/01/02 08:55:14;;;;;;;3.30;1.20;;;4.50;99.90;;;;;;4995395;28;20037;-79
2024/01/02 08:57:40;;;;;;;2.17;1.20;;;4.50;99.90;;;;;;4994539;28;20038;-80
2024/01/02 09:00:07;;;;;;;1.47;1.00;;;4.50;99.90;;;;;;4994483;28;20041;-81
2024/01/02 09:02:33;;;;;;;1.27;1.00;;;4.60;99.90;;;;;;4977387;28;20030;-80
2024/01/02 09:04:58;;;;;;;3.10;1.30;;;4.60;99.90;;;;;;4994998;28;20132;-79
2024/01/02 09:07:24;;;;;;;4.90;1.70;;;4.70;99.90;;;;;;4993721;28;20045;-80
2024/01/02 09:09:49;;;;;;;1.83;1.27;;;4.70;99.90;;;;;;4996688;28;20033;-79
2024/01/02 09:12:15;;;;;;;2.87;1.23;;;4.80;99.90;;;;;;4997074;28;20034;-79
2024/01/02 09:14:41;;;;;;;3.43;1.50;;;4.90;99.90;;;;;;4989159;28;20738;-80
2024/01/02 09:17:06;;;;;;;2.37;1.10;;;5.00;99.90;;;;;;4992118;28;20116;-78
2024/01/02 09:19:32;;;;;;;2.33;1.23;;;5.00;99.90;;;;;;4994386;28;20069;-80
2024/01/02 09:21:58;;;;;;;0.83;0.80;;;5.20;99.90;;;;;;4996079;28;20030;-80
2024/01/02 09:24:23;;;;;;;1.90;1.07;;;5.30;99.90;;;;;;4991134;28;20046;-79
2024/01/02 09:26:54;;;;;;;1.17;0.90;;;5.40;99.90;;;;;;4987575;28;20034;-79
2024/01/02 09:29:21;;;;;;;0.80;0.70;;;5.60;99.90;;;;;;4994947;28;20026;-80
2024/01/02 09:31:47;;;;;;;2.97;1.10;;;5.80;99.90;;;;;;4994247;28;20038;-79
2024/01/02 09:34:12;;;;;;;1.37;0.70;;;5.90;99.90;;;;;;4993521;28;20034;-80
2024/01/02 09:36:38;;;;;;;1.10;0.90;;;6.10;99.90;;;;;;4991645;28;20045;-78
2024/01/02 09:39:04;;;;;;;2.40;0.93;;;6.20;99.90;;;;;;4994094;28;20030;-80
2024/01/02 09:41:41;;;;;;;1.10;1.00;;;6.40;99.90;;;;;;4991055;28;20033;-78
2024/01/02 09:44:17;;;;;;;2.80;0.90;;;6.50;99.90;;;;;;4994338;28;21031;-80
2024/01/02 09:47:23;;;;;;;1.17;0.80;;;6.70;99.90;;;;;;4989085;28;20034;-80
2024/01/02 09:50:27;;;;;;;0.90;0.80;;;6.90;99.90;;;;;;4993119;28;20092;-80
2024/01/02 09:53:03;;;;;;;0.93;0.73;;;6.90;99.90;;;;;;4994592;28;20026;-79
2024/01/02 09:55:55;;;;;;;1.57;0.70;;;7.20;99.90;;;;;;4991206;28;20038;-79
2024/01/02 09:58:34;;;;;;;0.80;0.70;;;7.30;99.90;;;;;;4992326;28;20049;-80
2024/01/02 10:01:15;;;;;;;1.20;0.97;;;7.50;99.90;;;;;;4991207;28;20072;-78
2024/01/02 10:04:05;;;;;;;0.87;0.77;;;7.50;99.90;;;;;;4978426;28;20033;-79
2024/01/02 10:07:18;;;;;;;0.70;0.63;;;7.60;99.90;;;;;;4971222;28;20053;-78
2024/01/02 10:10:25;;;;;;;0.90;0.67;;;7.70;99.90;;;;;;4992704;28;20023;-78
2024/01/02 10:12:56;;;;;;;;;;;7.80;99.90;;;;;;4912861;29;20024;-78
2024/01/02 10:15:36;;;;;;;0.60;0.60;;;7.90;99.90;;;;;;4981797;28;19914;-79
2024/01/02 10:18:19;;;;;;;0.50;0.50;;;8.00;99.90;;;;;;4993951;28;20030;-79
2024/01/02 10:20:59;;;;;;;0.60;0.60;;;8.00;99.90;;;;;;4993548;28;20962;-77
2024/01/02 10:23:53;;;;;;;0.60;0.60;;;8.10;99.90;;;;;;4992713;28;20038;-77
2024/01/02 10:26:21;;;;;;;0.90;0.60;;;8.20;99.90;;;;;;4992656;28;20061;-77
2024/01/02 10:28:49;;;;;;;0.80;0.70;;;8.20;99.90;;;;;;4995766;28;20036;-78
2024/01/02 10:31:45;;;;;;;0.50;0.50;;;8.30;99.90;;;;;;4993735;28;20030;-79
2024/01/02 10:34:23;;;;;;;0.73;0.60;;;8.30;99.90;;;;;;4963516;28;20121;-78
2024/01/02 10:36:58;;;;;;;1.33;0.50;;;8.40;99.90;;;;;;4971884;28;20057;-77
2024/01/02 10:39:37;;;;;;;1.00;0.60;;;8.40;99.90;;;;;;4993575;28;20053;-77
2024/01/02 10:42:39;;;;;;;0.90;0.60;;;8.40;99.90;;;;;;4993914;28;20038;-78
2024/01/02 10:45:21;;;;;;;0.53;0.50;;;8.60;99.90;;;;;;4991197;28;20042;-78
2024/01/02 10:47:46;;;;;;;3.50;0.60;;;8.60;99.90;;;;;;4996286;28;20743;-77
2024/01/02 10:50:28;;;;;;;1.03;0.70;;;8.70;99.90;;;;;;4993934;28;20045;-78
2024/01/02 10:53:05;;;;;;;0.50;0.50;;;8.60;99.90;;;;;;4995028;28;20045;-77
2024/01/02 10:55:43;;;;;;;0.47;0.47;;;8.70;99.90;;;;;;4992658;28;20040;-79
2024/01/02 10:58:19;;;;;;;0.40;0.40;;;8.80;99.90;;;;;;4993808;28;20083;-77
2024/01/02 11:01:07;;;;;;;0.57;0.57;;;8.80;99.90;;;;;;4995728;28;20698;-77
2024/01/02 11:03:57;;;;;;;1.10;0.70;;;8.80;99.90;;;;;;4993202;28;20033;-79
2024/01/02 11:06:33;;;;;;;1.00;0.70;;;8.80;99.90;;;;;;4994878;28;20088;-77
2024/01/02 11:09:50;;;;;;;0.47;0.47;;;8.90;99.90;;;;;;5001812;28;20108;-78
2024/01/02 11:12:16;;;;;;;2.05;0.70;;;8.80;99.90;;;;;;4954158;28;20034;-78
2024/01/02 11:14:45;;;;;;;0.73;0.67;;;8.80;99.90;;;;;;4999053;28;20030;-79
2024/01/02 11:17:17;;;;;;;1.10;0.70;;;8.80;99.90;;;;;;5000742;28;20125;-77
2024/01/02 11:19:59;;;;;;;1.13;0.63;;;8.80;99.90;;;;;;5000004;28;20098;-79
2024/01/02 11:22:36;;;;;;;0.83;0.53;;;8.80;99.90;;;;;;5000787;28;20056;-79
2024/01/02 11:25:06;;;;;;;0.50;0.50;;;8.70;99.90;;;;;;5000229;28;20066;-77
2024/01/02 11:27:32;;;;;;;0.60;0.57;;;8.70;99.90;;;;;;5000065;28;20029;-77
2024/01/02 11:30:02;;;;;;;0.50;0.50;;;8.70;99.90;;;;;;5001412;28;20033;-79
2024/01/02 11:32:46;;;;;;;0.50;0.50;;;8.70;99.90;;;;;;5000073;28;20034;-79
2024/01/02 11:35:12;;;;;;;0.87;0.40;;;8.60;99.90;;;;;;5003148;28;20041;-77
2024/01/02 11:37:40;;;;;;;2.57;0.60;;;8.70;99.90;;;;;;4998824;28;20030;-78
2024/01/02 11:40:28;;;;;;;0.50;0.50;;;8.70;99.90;;;;;;4999034;28;20037;-78
2024/01/02 11:43:04;;;;;;;1.47;0.60;;;8.80;99.90;;;;;;4994915;28;20079;-81
2024/01/02 11:45:33;;;;;;;1.57;0.63;;;8.80;99.90;;;;;;4986367;28;20145;-82
2024/01/02 11:48:19;;;;;;;1.07;0.60;;;8.80;99.90;;;;;;4988029;28;20030;-80
2024/01/02 11:51:09;;;;;;;0.60;0.50;;;8.80;99.90;;;;;;4988786;28;20137;-80
2024/01/02 11:53:59;;;;;;;1.63;1.17;;;8.90;99.90;;;;;;4985323;28;20098;-81
2024/01/02 11:56:31;;;;;;;0.70;0.60;;;9.00;99.90;;;;;;4974468;28;20105;-80
2024/01/02 11:59:31;;;;;;;0.50;0.50;;;9.00;99.90;;;;;;4991992;28;20045;-81
2024/01/02 12:02:14;;;;;;;0.50;0.50;;;9.20;99.90;;;;;;4994860;28;20053;-80
2024/01/02 12:05:14;;;;;;;0.40;0.40;;;9.30;99.90;;;;;;4988199;28;20101;-80
2024/01/02 12:07:44;;;;;;;0.77;0.53;;;9.40;99.90;;;;;;4989106;28;20030;-78
2024/01/02 12:10:12;;;;;;;1.03;0.60;;;9.40;99.90;;;;;;4988161;28;20038;-80
2024/01/02 12:12:40;;;;;;;0.60;0.53;;;9.50;99.90;;;;;;4987316;28;20041;-80
2024/01/02 12:15:12;;;;;;;0.50;0.50;;;9.60;99.90;;;;;;4987956;28;20026;-78
2024/01/02 12:17:59;;;;;;;0.50;0.50;;;9.60;99.90;;;;;;4991307;28;20029;-80
2024/01/02 12:20:27;;;;;;;0.57;0.40;;;9.60;99.90;;;;;;4991753;28;20138;-80
2024/01/02 12:22:53;;;;;;;0.57;0.53;;;9.60;99.90;;;;;;4987304;28;20031;-80
2024/01/02 12:25:19;;;;;;;0.60;0.60;;;9.70;99.90;;;;;;4988241;28;20042;-81
2024/01/02 12:27:47;;;;;;;0.50;0.50;;;9.80;99.90;;;;;;4987662;28;20068;-79
2024/01/02 12:30:28;;;;;;;0.80;0.60;;;9.80;99.90;;;;;;4986986;28;20066;-80
2024/01/02 12:33:16;;;;;;;1.30;0.60;;;9.80;99.90;;;;;;4971260;28;20045;-80
2024/01/02 12:35:50;;;;;;;0.63;0.60;;;9.90;99.90;;;;;;4977839;28;20040;-78
2024/01/02 12:38:23;;;;;;;0.73;0.50;;;9.90;99.90;;;;;;4988303;28;20045;-80
2024/01/02 12:40:52;;;;;;;0.63;0.60;;;9.80;99.90;;;;;;4988810;28;20052;-80
2024/01/02 12:43:29;;;;;;;0.53;0.50;;;9.90;99.90;;;;;;4989475;28;20041;-80
2024/01/02 12:46:17;;;;;;;0.40;0.40;;;9.90;99.90;;;;;;4988491;28;20042;-81
2024/01/02 12:48:56;;;;;;;0.40;0.40;;;9.90;99.90;;;;;;4989301;28;20030;-78
2024/01/02 12:51:27;;;;;;;1.00;0.60;;;9.80;99.90;;;;;;4986532;28;20508;-79
2024/01/02 12:53:54;;;;;;;1.00;0.50;;;9.80;99.90;;;;;;4973805;28;20087;-80
2024/01/02 12:56:24;;;;;;;0.60;0.50;;;9.80;99.90;;;;;;4992817;28;20038;-80
2024/01/02 12:58:51;;;;;;;0.60;0.50;;;9.90;99.90;;;;;;4991413;28;20038;-80
2024/01/02 13:01:18;;;;;;;0.73;0.70;;;9.90;99.90;;;;;;4990364;28;20034;-80
2024/01/02 13:03:44;;;;;;;0.73;0.50;;;9.90;99.90;;;;;;4971518;28;20038;-78
2024/01/02 13:06:11;;;;;;;0.60;0.60;;;9.90;99.90;;;;;;4987772;28;20038;-80